sensor_id;sensor_type;location;lat;lon;timestamp;P1;durP1;ratioP1;P2;durP2;ratioP2
41635;SDS011;27623;51.966;4.602;2022-12-18T00:01:40;62.97;;;22.65;;
41635;SDS011;27623;51.966;4.602;2022-12-18T00:04:08;70.55;;;21.65;;
41635;SDS011;27623;51.966;4.602;2022-12-18T00:06:46;68.63;;;21.20;;
41635;SDS011;27623;51.966;4.602;2022-12-18T00:09:12;42.15;;;14.90;;
41635;SDS011;27623;51.966;4.602;2022-12-18T00:11:37;64.25;;;18.95;;
41635;SDS011;27623;51.966;4.602;2022-12-18T00:14:03;67.05;;;22.10;;
41635;SDS011;27623;51.966;4.602;2022-12-18T00:16:28;62.03;;;19.75;;
41635;SDS011;27623;51.966;4.602;2022-12-18T00:18:55;70.75;;;20.17;;
41635;SDS011;27623;51.966;4.602;2022-12-18T00:21:21;69.88;;;21.63;;
41635;SDS011;27623;51.966;4.602;2022-12-18T00:23:47;72.05;;;20.67;;
41635;SDS011;27623;51.966;4.602;2022-12-18T00:26:19;72.78;;;21.85;;
41635;SDS011;27623;51.966;4.602;2022-12-18T00:28:47;62.08;;;19.52;;
41635;SDS011;27623;51.966;4.602;2022-12-18T00:31:13;74.50;;;22.90;;
41635;SDS011;27623;51.966;4.602;2022-12-18T00:33:41;64.65;;;21.73;;
41635;SDS011;27623;51.966;4.602;2022-12-18T00:36:11;68.78;;;20.63;;
41635;SDS011;27623;51.966;4.602;2022-12-18T00:38:41;70.90;;;22.45;;
41635;SDS011;27623;51.966;4.602;2022-12-18T00:41:07;65.35;;;21.67;;
41635;SDS011;27623;51.966;4.602;2022-12-18T00:43:35;58.97;;;22.05;;
41635;SDS011;27623;51.966;4.602;2022-12-18T00:46:03;66.13;;;19.70;;
41635;SDS011;27623;51.966;4.602;2022-12-18T00:48:29;70.30;;;21.58;;
41635;SDS011;27623;51.966;4.602;2022-12-18T00:50:55;59.35;;;19.98;;
41635;SDS011;27623;51.966;4.602;2022-12-18T00:53:20;76.70;;;21.77;;
41635;SDS011;27623;51.966;4.602;2022-12-18T00:55:46;60.22;;;19.73;;
41635;SDS011;27623;51.966;4.602;2022-12-18T00:58:12;61.97;;;21.80;;
41635;SDS011;27623;51.966;4.602;2022-12-18T01:00:39;73.50;;;21.30;;
41635;SDS011;27623;51.966;4.602;2022-12-18T01:03:07;61.50;;;21.23;;
41635;SDS011;27623;51.966;4.602;2022-12-18T01:05:38;81.63;;;23.48;;
41635;SDS011;27623;51.966;4.602;2022-12-18T01:08:04;72.50;;;21.95;;
41635;SDS011;27623;51.966;4.602;2022-12-18T01:10:29;65.78;;;20.77;;
41635;SDS011;27623;51.966;4.602;2022-12-18T01:12:55;51.92;;;20.02;;
41635;SDS011;27623;51.966;4.602;2022-12-18T01:15:20;74.63;;;22.35;;
41635;SDS011;27623;51.966;4.602;2022-12-18T01:17:48;69.70;;;21.83;;
41635;SDS011;27623;51.966;4.602;2022-12-18T01:20:14;64.85;;;21.17;;
41635;SDS011;27623;51.966;4.602;2022-12-18T01:22:39;63.35;;;21.30;;
41635;SDS011;27623;51.966;4.602;2022-12-18T01:25:05;65.80;;;20.15;;
41635;SDS011;27623;51.966;4.602;2022-12-18T01:27:31;67.10;;;21.00;;
41635;SDS011;27623;51.966;4.602;2022-12-18T01:29:58;76.72;;;19.10;;
41635;SDS011;27623;51.966;4.602;2022-12-18T01:32:24;61.08;;;19.85;;
41635;SDS011;27623;51.966;4.602;2022-12-18T01:34:49;72.57;;;21.77;;
41635;SDS011;27623;51.966;4.602;2022-12-18T01:37:14;63.17;;;19.73;;
41635;SDS011;27623;51.966;4.602;2022-12-18T01:39:40;67.65;;;21.05;;
41635;SDS011;27623;51.966;4.602;2022-12-18T01:42:12;70.15;;;21.13;;
41635;SDS011;27623;51.966;4.602;2022-12-18T01:47:46;58.55;;;19.95;;
41635;SDS011;27623;51.966;4.602;2022-12-18T01:52:40;63.10;;;19.02;;
41635;SDS011;27623;51.966;4.602;2022-12-18T01:55:12;63.17;;;19.60;;
41635;SDS011;27623;51.966;4.602;2022-12-18T01:57:41;62.45;;;20.65;;
41635;SDS011;27623;51.966;4.602;2022-12-18T02:00:08;59.25;;;19.23;;
41635;SDS011;27623;51.966;4.602;2022-12-18T02:02:47;52.30;;;17.63;;
41635;SDS011;27623;51.966;4.602;2022-12-18T02:05:18;44.42;;;15.68;;
41635;SDS011;27623;51.966;4.602;2022-12-18T02:10:32;53.60;;;18.80;;
41635;SDS011;27623;51.966;4.602;2022-12-18T02:13:19;57.80;;;17.95;;
41635;SDS011;27623;51.966;4.602;2022-12-18T02:18:45;47.83;;;16.98;;
41635;SDS011;27623;51.966;4.602;2022-12-18T02:26:48;50.30;;;16.88;;
41635;SDS011;27623;51.966;4.602;2022-12-18T02:29:18;58.38;;;19.10;;
41635;SDS011;27623;51.966;4.602;2022-12-18T02:31:51;51.17;;;16.63;;
41635;SDS011;27623;51.966;4.602;2022-12-18T02:34:19;61.75;;;18.38;;
41635;SDS011;27623;51.966;4.602;2022-12-18T02:36:48;58.83;;;17.92;;
41635;SDS011;27623;51.966;4.602;2022-12-18T02:39:16;56.83;;;16.77;;
41635;SDS011;27623;51.966;4.602;2022-12-18T02:41:42;50.13;;;17.92;;
41635;SDS011;27623;51.966;4.602;2022-12-18T02:44:12;54.80;;;18.02;;
41635;SDS011;27623;51.966;4.602;2022-12-18T02:51:49;50.90;;;17.40;;
41635;SDS011;27623;51.966;4.602;2022-12-18T02:54:42;50.00;;;17.55;;
41635;SDS011;27623;51.966;4.602;2022-12-18T03:00:22;49.33;;;17.38;;
41635;SDS011;27623;51.966;4.602;2022-12-18T03:02:56;58.97;;;18.67;;
41635;SDS011;27623;51.966;4.602;2022-12-18T03:05:38;49.70;;;17.08;;
41635;SDS011;27623;51.966;4.602;2022-12-18T03:08:20;53.85;;;18.20;;
41635;SDS011;27623;51.966;4.602;2022-12-18T03:10:53;56.65;;;19.65;;
41635;SDS011;27623;51.966;4.602;2022-12-18T03:13:27;49.72;;;16.50;;
41635;SDS011;27623;51.966;4.602;2022-12-18T03:15:56;53.28;;;18.50;;
41635;SDS011;27623;51.966;4.602;2022-12-18T03:18:31;51.78;;;17.25;;
41635;SDS011;27623;51.966;4.602;2022-12-18T03:21:19;53.45;;;16.83;;
41635;SDS011;27623;51.966;4.602;2022-12-18T03:23:51;58.40;;;19.13;;
41635;SDS011;27623;51.966;4.602;2022-12-18T03:26:19;48.20;;;17.08;;
41635;SDS011;27623;51.966;4.602;2022-12-18T03:28:50;47.22;;;16.95;;
41635;SDS011;27623;51.966;4.602;2022-12-18T03:31:19;51.50;;;17.52;;
41635;SDS011;27623;51.966;4.602;2022-12-18T03:33:53;58.88;;;17.08;;
41635;SDS011;27623;51.966;4.602;2022-12-18T03:36:24;63.50;;;18.42;;
41635;SDS011;27623;51.966;4.602;2022-12-18T03:38:50;54.50;;;18.77;;
41635;SDS011;27623;51.966;4.602;2022-12-18T03:41:19;50.33;;;16.50;;
41635;SDS011;27623;51.966;4.602;2022-12-18T03:43:52;50.53;;;17.38;;
41635;SDS011;27623;51.966;4.602;2022-12-18T03:46:26;55.45;;;17.95;;
41635;SDS011;27623;51.966;4.602;2022-12-18T03:49:03;48.78;;;17.73;;
41635;SDS011;27623;51.966;4.602;2022-12-18T03:51:39;45.70;;;15.32;;
41635;SDS011;27623;51.966;4.602;2022-12-18T03:54:09;43.33;;;15.45;;
41635;SDS011;27623;51.966;4.602;2022-12-18T03:56:37;46.67;;;16.15;;
41635;SDS011;27623;51.966;4.602;2022-12-18T03:59:07;44.88;;;16.48;;
41635;SDS011;27623;51.966;4.602;2022-12-18T04:01:40;53.63;;;16.42;;
41635;SDS011;27623;51.966;4.602;2022-12-18T04:04:10;46.40;;;15.97;;
41635;SDS011;27623;51.966;4.602;2022-12-18T04:06:39;49.13;;;14.98;;
41635;SDS011;27623;51.966;4.602;2022-12-18T04:09:07;46.50;;;17.55;;
41635;SDS011;27623;51.966;4.602;2022-12-18T04:11:35;39.72;;;15.20;;
41635;SDS011;27623;51.966;4.602;2022-12-18T04:14:00;44.03;;;16.05;;
41635;SDS011;27623;51.966;4.602;2022-12-18T04:16:26;40.28;;;15.30;;
41635;SDS011;27623;51.966;4.602;2022-12-18T04:18:52;44.42;;;15.55;;
41635;SDS011;27623;51.966;4.602;2022-12-18T04:21:18;46.83;;;17.58;;
41635;SDS011;27623;51.966;4.602;2022-12-18T04:23:44;45.85;;;15.85;;
41635;SDS011;27623;51.966;4.602;2022-12-18T04:26:09;43.08;;;16.23;;
41635;SDS011;27623;51.966;4.602;2022-12-18T04:28:35;43.65;;;15.55;;
41635;SDS011;27623;51.966;4.602;2022-12-18T04:31:00;38.95;;;15.43;;
41635;SDS011;27623;51.966;4.602;2022-12-18T04:33:26;40.95;;;15.18;;
41635;SDS011;27623;51.966;4.602;2022-12-18T04:35:52;46.50;;;15.75;;
41635;SDS011;27623;51.966;4.602;2022-12-18T04:38:17;36.83;;;14.98;;
41635;SDS011;27623;51.966;4.602;2022-12-18T04:40:43;47.33;;;15.35;;
41635;SDS011;27623;51.966;4.602;2022-12-18T04:43:09;42.85;;;15.60;;
41635;SDS011;27623;51.966;4.602;2022-12-18T04:45:34;49.97;;;16.75;;
41635;SDS011;27623;51.966;4.602;2022-12-18T04:48:00;42.58;;;16.35;;
41635;SDS011;27623;51.966;4.602;2022-12-18T04:50:26;36.85;;;13.68;;
41635;SDS011;27623;51.966;4.602;2022-12-18T04:52:53;43.25;;;15.73;;
41635;SDS011;27623;51.966;4.602;2022-12-18T04:55:19;40.22;;;15.80;;
41635;SDS011;27623;51.966;4.602;2022-12-18T04:57:45;44.70;;;15.68;;
41635;SDS011;27623;51.966;4.602;2022-12-18T05:00:11;42.85;;;15.95;;
41635;SDS011;27623;51.966;4.602;2022-12-18T05:02:37;36.08;;;14.57;;
41635;SDS011;27623;51.966;4.602;2022-12-18T05:05:03;37.05;;;14.98;;
41635;SDS011;27623;51.966;4.602;2022-12-18T05:07:30;39.33;;;15.32;;
41635;SDS011;27623;51.966;4.602;2022-12-18T05:09:55;41.03;;;15.07;;
41635;SDS011;27623;51.966;4.602;2022-12-18T05:12:21;36.45;;;15.30;;
41635;SDS011;27623;51.966;4.602;2022-12-18T05:14:47;38.35;;;15.52;;
41635;SDS011;27623;51.966;4.602;2022-12-18T05:17:13;44.08;;;15.27;;
41635;SDS011;27623;51.966;4.602;2022-12-18T05:19:39;44.13;;;15.43;;
41635;SDS011;27623;51.966;4.602;2022-12-18T05:22:05;44.58;;;15.90;;
41635;SDS011;27623;51.966;4.602;2022-12-18T05:24:30;35.15;;;15.50;;
41635;SDS011;27623;51.966;4.602;2022-12-18T05:26:56;44.08;;;14.60;;
41635;SDS011;27623;51.966;4.602;2022-12-18T05:29:21;41.42;;;15.43;;
41635;SDS011;27623;51.966;4.602;2022-12-18T05:31:47;39.17;;;14.40;;
41635;SDS011;27623;51.966;4.602;2022-12-18T05:34:12;45.70;;;15.45;;
41635;SDS011;27623;51.966;4.602;2022-12-18T05:36:37;38.50;;;15.45;;
41635;SDS011;27623;51.966;4.602;2022-12-18T05:39:03;43.15;;;15.07;;
41635;SDS011;27623;51.966;4.602;2022-12-18T05:41:29;42.90;;;15.32;;
41635;SDS011;27623;51.966;4.602;2022-12-18T05:43:55;36.70;;;14.43;;
41635;SDS011;27623;51.966;4.602;2022-12-18T05:46:20;35.85;;;14.45;;
41635;SDS011;27623;51.966;4.602;2022-12-18T05:48:46;44.33;;;16.17;;
41635;SDS011;27623;51.966;4.602;2022-12-18T05:51:13;40.33;;;16.05;;
41635;SDS011;27623;51.966;4.602;2022-12-18T05:53:41;40.30;;;15.25;;
41635;SDS011;27623;51.966;4.602;2022-12-18T05:56:08;44.22;;;15.77;;
41635;SDS011;27623;51.966;4.602;2022-12-18T05:58:41;38.38;;;15.20;;
41635;SDS011;27623;51.966;4.602;2022-12-18T06:01:08;38.28;;;15.02;;
41635;SDS011;27623;51.966;4.602;2022-12-18T06:03:45;41.88;;;15.50;;
41635;SDS011;27623;51.966;4.602;2022-12-18T06:06:14;32.30;;;13.50;;
41635;SDS011;27623;51.966;4.602;2022-12-18T06:08:42;36.83;;;14.52;;
41635;SDS011;27623;51.966;4.602;2022-12-18T06:11:08;38.83;;;15.27;;
41635;SDS011;27623;51.966;4.602;2022-12-18T06:13:33;40.88;;;14.60;;
41635;SDS011;27623;51.966;4.602;2022-12-18T06:16:01;36.03;;;13.93;;
41635;SDS011;27623;51.966;4.602;2022-12-18T06:18:27;36.80;;;14.57;;
41635;SDS011;27623;51.966;4.602;2022-12-18T06:20:56;39.35;;;15.18;;
41635;SDS011;27623;51.966;4.602;2022-12-18T06:23:22;40.22;;;15.25;;
41635;SDS011;27623;51.966;4.602;2022-12-18T06:25:48;34.83;;;14.45;;
41635;SDS011;27623;51.966;4.602;2022-12-18T06:28:14;35.78;;;15.43;;
41635;SDS011;27623;51.966;4.602;2022-12-18T06:30:39;32.33;;;12.75;;
41635;SDS011;27623;51.966;4.602;2022-12-18T06:33:05;37.58;;;14.13;;
41635;SDS011;27623;51.966;4.602;2022-12-18T06:35:31;35.00;;;13.73;;
41635;SDS011;27623;51.966;4.602;2022-12-18T06:37:57;34.53;;;13.48;;
41635;SDS011;27623;51.966;4.602;2022-12-18T06:40:22;32.25;;;13.00;;
41635;SDS011;27623;51.966;4.602;2022-12-18T06:42:48;37.90;;;13.52;;
41635;SDS011;27623;51.966;4.602;2022-12-18T06:45:13;37.35;;;13.80;;
41635;SDS011;27623;51.966;4.602;2022-12-18T06:47:39;36.97;;;13.85;;
41635;SDS011;27623;51.966;4.602;2022-12-18T06:50:05;33.17;;;12.90;;
41635;SDS011;27623;51.966;4.602;2022-12-18T06:52:31;29.67;;;13.05;;
41635;SDS011;27623;51.966;4.602;2022-12-18T06:54:57;35.42;;;13.70;;
41635;SDS011;27623;51.966;4.602;2022-12-18T06:57:22;36.45;;;14.27;;
41635;SDS011;27623;51.966;4.602;2022-12-18T06:59:48;31.13;;;12.80;;
41635;SDS011;27623;51.966;4.602;2022-12-18T07:02:13;32.28;;;11.93;;
41635;SDS011;27623;51.966;4.602;2022-12-18T07:04:39;30.02;;;12.27;;
41635;SDS011;27623;51.966;4.602;2022-12-18T07:07:04;28.20;;;11.00;;
41635;SDS011;27623;51.966;4.602;2022-12-18T07:09:30;25.75;;;12.38;;
41635;SDS011;27623;51.966;4.602;2022-12-18T07:11:55;27.38;;;11.38;;
41635;SDS011;27623;51.966;4.602;2022-12-18T07:14:21;32.10;;;13.68;;
41635;SDS011;27623;51.966;4.602;2022-12-18T07:16:46;28.80;;;11.68;;
41635;SDS011;27623;51.966;4.602;2022-12-18T07:19:11;27.05;;;11.05;;
41635;SDS011;27623;51.966;4.602;2022-12-18T07:21:37;33.22;;;12.68;;
41635;SDS011;27623;51.966;4.602;2022-12-18T07:24:03;35.15;;;11.98;;
41635;SDS011;27623;51.966;4.602;2022-12-18T07:26:30;30.35;;;11.55;;
41635;SDS011;27623;51.966;4.602;2022-12-18T07:28:56;29.23;;;11.38;;
41635;SDS011;27623;51.966;4.602;2022-12-18T07:31:24;30.23;;;11.30;;
41635;SDS011;27623;51.966;4.602;2022-12-18T07:33:51;32.88;;;11.65;;
41635;SDS011;27623;51.966;4.602;2022-12-18T07:36:17;32.40;;;11.43;;
41635;SDS011;27623;51.966;4.602;2022-12-18T07:38:43;23.75;;;10.52;;
41635;SDS011;27623;51.966;4.602;2022-12-18T07:41:12;24.77;;;10.82;;
41635;SDS011;27623;51.966;4.602;2022-12-18T07:43:39;24.38;;;11.88;;
41635;SDS011;27623;51.966;4.602;2022-12-18T07:46:05;26.58;;;10.18;;
41635;SDS011;27623;51.966;4.602;2022-12-18T07:48:32;26.92;;;10.75;;
41635;SDS011;27623;51.966;4.602;2022-12-18T07:50:59;26.73;;;10.57;;
41635;SDS011;27623;51.966;4.602;2022-12-18T07:53:26;21.38;;;10.90;;
41635;SDS011;27623;51.966;4.602;2022-12-18T07:56:01;29.52;;;11.35;;
41635;SDS011;27623;51.966;4.602;2022-12-18T07:58:29;27.35;;;11.60;;
41635;SDS011;27623;51.966;4.602;2022-12-18T08:01:01;26.15;;;10.77;;
41635;SDS011;27623;51.966;4.602;2022-12-18T08:03:28;24.95;;;9.70;;
41635;SDS011;27623;51.966;4.602;2022-12-18T08:05:57;24.23;;;10.68;;
41635;SDS011;27623;51.966;4.602;2022-12-18T08:08:24;23.10;;;9.80;;
41635;SDS011;27623;51.966;4.602;2022-12-18T08:10:50;27.25;;;10.55;;
41635;SDS011;27623;51.966;4.602;2022-12-18T08:13:15;27.70;;;9.60;;
41635;SDS011;27623;51.966;4.602;2022-12-18T08:15:40;27.27;;;10.80;;
41635;SDS011;27623;51.966;4.602;2022-12-18T08:18:06;25.55;;;11.85;;
41635;SDS011;27623;51.966;4.602;2022-12-18T08:20:31;25.35;;;10.18;;
41635;SDS011;27623;51.966;4.602;2022-12-18T08:22:57;25.30;;;10.30;;
41635;SDS011;27623;51.966;4.602;2022-12-18T08:25:23;19.08;;;7.88;;
41635;SDS011;27623;51.966;4.602;2022-12-18T08:27:48;24.33;;;9.60;;
41635;SDS011;27623;51.966;4.602;2022-12-18T08:30:14;25.77;;;10.13;;
41635;SDS011;27623;51.966;4.602;2022-12-18T08:32:41;25.40;;;10.52;;
41635;SDS011;27623;51.966;4.602;2022-12-18T08:35:07;28.70;;;11.35;;
41635;SDS011;27623;51.966;4.602;2022-12-18T08:37:33;24.08;;;10.25;;
41635;SDS011;27623;51.966;4.602;2022-12-18T08:39:59;19.23;;;9.73;;
41635;SDS011;27623;51.966;4.602;2022-12-18T08:42:25;25.38;;;10.45;;
41635;SDS011;27623;51.966;4.602;2022-12-18T08:45:09;22.98;;;9.60;;
41635;SDS011;27623;51.966;4.602;2022-12-18T08:47:35;23.75;;;10.07;;
41635;SDS011;27623;51.966;4.602;2022-12-18T08:50:05;19.23;;;9.40;;
41635;SDS011;27623;51.966;4.602;2022-12-18T08:52:31;26.55;;;10.82;;
41635;SDS011;27623;51.966;4.602;2022-12-18T08:54:57;26.52;;;10.65;;
41635;SDS011;27623;51.966;4.602;2022-12-18T08:57:22;22.15;;;10.50;;
41635;SDS011;27623;51.966;4.602;2022-12-18T08:59:48;24.73;;;11.07;;
41635;SDS011;27623;51.966;4.602;2022-12-18T09:02:14;23.13;;;10.65;;
41635;SDS011;27623;51.966;4.602;2022-12-18T09:04:39;21.70;;;9.93;;
41635;SDS011;27623;51.966;4.602;2022-12-18T09:07:04;27.92;;;10.60;;
41635;SDS011;27623;51.966;4.602;2022-12-18T09:09:30;25.13;;;9.40;;
41635;SDS011;27623;51.966;4.602;2022-12-18T09:11:55;22.48;;;10.63;;
41635;SDS011;27623;51.966;4.602;2022-12-18T09:14:21;24.60;;;10.32;;
41635;SDS011;27623;51.966;4.602;2022-12-18T09:16:46;28.40;;;10.95;;
41635;SDS011;27623;51.966;4.602;2022-12-18T09:19:11;22.52;;;10.18;;
41635;SDS011;27623;51.966;4.602;2022-12-18T09:21:38;22.58;;;9.43;;
41635;SDS011;27623;51.966;4.602;2022-12-18T09:24:04;22.20;;;9.68;;
41635;SDS011;27623;51.966;4.602;2022-12-18T09:26:32;21.88;;;10.75;;
41635;SDS011;27623;51.966;4.602;2022-12-18T09:28:59;23.88;;;10.40;;
41635;SDS011;27623;51.966;4.602;2022-12-18T09:31:26;26.48;;;11.13;;
41635;SDS011;27623;51.966;4.602;2022-12-18T09:33:52;23.63;;;10.15;;
41635;SDS011;27623;51.966;4.602;2022-12-18T09:36:20;22.90;;;10.82;;
41635;SDS011;27623;51.966;4.602;2022-12-18T09:38:46;27.50;;;11.25;;
41635;SDS011;27623;51.966;4.602;2022-12-18T09:44:01;22.05;;;9.48;;
41635;SDS011;27623;51.966;4.602;2022-12-18T09:46:43;24.45;;;10.70;;
41635;SDS011;27623;51.966;4.602;2022-12-18T09:49:13;22.30;;;11.00;;
41635;SDS011;27623;51.966;4.602;2022-12-18T09:52:30;26.25;;;11.23;;
41635;SDS011;27623;51.966;4.602;2022-12-18T09:54:40;23.10;;;11.02;;
41635;SDS011;27623;51.966;4.602;2022-12-18T09:57:15;29.58;;;12.75;;
41635;SDS011;27623;51.966;4.602;2022-12-18T09:59:43;22.60;;;10.88;;
41635;SDS011;27623;51.966;4.602;2022-12-18T10:02:19;24.77;;;11.07;;
41635;SDS011;27623;51.966;4.602;2022-12-18T10:04:52;30.80;;;12.75;;
41635;SDS011;27623;51.966;4.602;2022-12-18T10:07:43;26.75;;;11.45;;
41635;SDS011;27623;51.966;4.602;2022-12-18T10:10:14;23.10;;;9.93;;
41635;SDS011;27623;51.966;4.602;2022-12-18T10:18:06;28.08;;;11.52;;
41635;SDS011;27623;51.966;4.602;2022-12-18T10:20:57;24.42;;;10.35;;
41635;SDS011;27623;51.966;4.602;2022-12-18T10:23:32;22.88;;;10.75;;
41635;SDS011;27623;51.966;4.602;2022-12-18T10:26:09;23.85;;;10.23;;
41635;SDS011;27623;51.966;4.602;2022-12-18T10:28:36;24.77;;;10.23;;
41635;SDS011;27623;51.966;4.602;2022-12-18T10:31:07;25.08;;;11.35;;
41635;SDS011;27623;51.966;4.602;2022-12-18T10:33:42;25.60;;;11.93;;
41635;SDS011;27623;51.966;4.602;2022-12-18T10:36:08;23.05;;;10.90;;
41635;SDS011;27623;51.966;4.602;2022-12-18T10:38:33;21.27;;;10.57;;
41635;SDS011;27623;51.966;4.602;2022-12-18T10:41:02;23.20;;;10.40;;
41635;SDS011;27623;51.966;4.602;2022-12-18T10:43:37;26.92;;;11.07;;
41635;SDS011;27623;51.966;4.602;2022-12-18T10:46:07;22.45;;;10.90;;
41635;SDS011;27623;51.966;4.602;2022-12-18T10:51:13;26.10;;;11.20;;
41635;SDS011;27623;51.966;4.602;2022-12-18T10:54:25;24.58;;;10.10;;
41635;SDS011;27623;51.966;4.602;2022-12-18T10:56:50;27.42;;;11.55;;
41635;SDS011;27623;51.966;4.602;2022-12-18T10:59:16;24.90;;;11.13;;
41635;SDS011;27623;51.966;4.602;2022-12-18T11:04:16;21.02;;;10.77;;
41635;SDS011;27623;51.966;4.602;2022-12-18T11:06:53;24.98;;;10.82;;
41635;SDS011;27623;51.966;4.602;2022-12-18T11:09:32;29.17;;;12.43;;
41635;SDS011;27623;51.966;4.602;2022-12-18T11:12:14;22.33;;;10.10;;
41635;SDS011;27623;51.966;4.602;2022-12-18T11:14:42;27.95;;;11.85;;
41635;SDS011;27623;51.966;4.602;2022-12-18T11:17:22;26.35;;;11.55;;
41635;SDS011;27623;51.966;4.602;2022-12-18T11:19:58;27.63;;;11.70;;
41635;SDS011;27623;51.966;4.602;2022-12-18T11:22:26;26.38;;;10.98;;
41635;SDS011;27623;51.966;4.602;2022-12-18T11:27:24;28.55;;;12.65;;
41635;SDS011;27623;51.966;4.602;2022-12-18T11:29:50;27.75;;;10.85;;
41635;SDS011;27623;51.966;4.602;2022-12-18T11:35:03;25.27;;;10.77;;
41635;SDS011;27623;51.966;4.602;2022-12-18T11:37:29;25.33;;;11.32;;
41635;SDS011;27623;51.966;4.602;2022-12-18T11:39:58;28.15;;;13.23;;
41635;SDS011;27623;51.966;4.602;2022-12-18T11:42:54;24.13;;;10.95;;
41635;SDS011;27623;51.966;4.602;2022-12-18T11:50:28;24.05;;;10.95;;
41635;SDS011;27623;51.966;4.602;2022-12-18T11:53:03;22.02;;;10.10;;
41635;SDS011;27623;51.966;4.602;2022-12-18T11:55:31;23.30;;;11.45;;
41635;SDS011;27623;51.966;4.602;2022-12-18T11:58:12;23.77;;;11.73;;
41635;SDS011;27623;51.966;4.602;2022-12-18T12:01:33;29.38;;;12.30;;
41635;SDS011;27623;51.966;4.602;2022-12-18T12:09:34;29.67;;;13.02;;
41635;SDS011;27623;51.966;4.602;2022-12-18T12:14:28;24.10;;;10.63;;
41635;SDS011;27623;51.966;4.602;2022-12-18T12:17:09;25.75;;;10.82;;
41635;SDS011;27623;51.966;4.602;2022-12-18T12:20:40;21.85;;;10.70;;
41635;SDS011;27623;51.966;4.602;2022-12-18T12:25:33;28.92;;;12.63;;
41635;SDS011;27623;51.966;4.602;2022-12-18T12:31:18;30.95;;;14.85;;
41635;SDS011;27623;51.966;4.602;2022-12-18T12:36:41;24.90;;;11.90;;
41635;SDS011;27623;51.966;4.602;2022-12-18T12:41:48;24.85;;;10.80;;
41635;SDS011;27623;51.966;4.602;2022-12-18T12:44:45;24.63;;;11.90;;
41635;SDS011;27623;51.966;4.602;2022-12-18T12:47:32;23.58;;;11.82;;
41635;SDS011;27623;51.966;4.602;2022-12-18T12:50:03;25.20;;;11.00;;
41635;SDS011;27623;51.966;4.602;2022-12-18T12:52:42;27.08;;;13.10;;
41635;SDS011;27623;51.966;4.602;2022-12-18T12:55:16;26.52;;;12.18;;
41635;SDS011;27623;51.966;4.602;2022-12-18T12:57:50;24.90;;;11.63;;
41635;SDS011;27623;51.966;4.602;2022-12-18T13:00:29;23.25;;;11.93;;
41635;SDS011;27623;51.966;4.602;2022-12-18T13:05:46;31.85;;;12.75;;
41635;SDS011;27623;51.966;4.602;2022-12-18T13:08:27;25.38;;;11.98;;
41635;SDS011;27623;51.966;4.602;2022-12-18T13:10:54;25.80;;;11.85;;
41635;SDS011;27623;51.966;4.602;2022-12-18T13:13:52;25.42;;;11.77;;
41635;SDS011;27623;51.966;4.602;2022-12-18T13:16:23;24.58;;;11.40;;
41635;SDS011;27623;51.966;4.602;2022-12-18T13:18:53;29.35;;;11.30;;
41635;SDS011;27623;51.966;4.602;2022-12-18T13:21:28;27.60;;;12.55;;
41635;SDS011;27623;51.966;4.602;2022-12-18T13:23:57;23.25;;;10.80;;
41635;SDS011;27623;51.966;4.602;2022-12-18T13:26:45;29.02;;;12.40;;
41635;SDS011;27623;51.966;4.602;2022-12-18T13:29:11;27.60;;;12.45;;
41635;SDS011;27623;51.966;4.602;2022-12-18T13:34:21;27.65;;;12.73;;
41635;SDS011;27623;51.966;4.602;2022-12-18T13:39:57;27.80;;;13.18;;
41635;SDS011;27623;51.966;4.602;2022-12-18T13:45:40;25.85;;;11.65;;
41635;SDS011;27623;51.966;4.602;2022-12-18T13:48:16;26.30;;;12.75;;
41635;SDS011;27623;51.966;4.602;2022-12-18T13:50:50;25.38;;;12.55;;
41635;SDS011;27623;51.966;4.602;2022-12-18T13:53:30;26.77;;;11.57;;
41635;SDS011;27623;51.966;4.602;2022-12-18T13:55:59;28.90;;;11.95;;
41635;SDS011;27623;51.966;4.602;2022-12-18T13:58:24;25.50;;;12.13;;
41635;SDS011;27623;51.966;4.602;2022-12-18T14:00:50;27.02;;;13.73;;
41635;SDS011;27623;51.966;4.602;2022-12-18T14:03:20;24.88;;;10.88;;
41635;SDS011;27623;51.966;4.602;2022-12-18T14:05:52;29.38;;;12.40;;
41635;SDS011;27623;51.966;4.602;2022-12-18T14:08:23;24.52;;;12.48;;
41635;SDS011;27623;51.966;4.602;2022-12-18T14:10:52;30.52;;;14.63;;
41635;SDS011;27623;51.966;4.602;2022-12-18T14:13:23;29.33;;;13.05;;
41635;SDS011;27623;51.966;4.602;2022-12-18T14:15:53;30.95;;;12.63;;
41635;SDS011;27623;51.966;4.602;2022-12-18T14:18:25;26.27;;;13.15;;
41635;SDS011;27623;51.966;4.602;2022-12-18T14:20:57;29.58;;;13.55;;
41635;SDS011;27623;51.966;4.602;2022-12-18T14:23:32;28.30;;;12.25;;
41635;SDS011;27623;51.966;4.602;2022-12-18T14:26:18;25.85;;;13.02;;
41635;SDS011;27623;51.966;4.602;2022-12-18T14:28:44;19.77;;;9.07;;
41635;SDS011;27623;51.966;4.602;2022-12-18T14:31:21;24.80;;;11.48;;
41635;SDS011;27623;51.966;4.602;2022-12-18T14:33:49;28.88;;;12.68;;
41635;SDS011;27623;51.966;4.602;2022-12-18T14:36:20;27.25;;;12.40;;
41635;SDS011;27623;51.966;4.602;2022-12-18T14:38:49;26.52;;;12.10;;
41635;SDS011;27623;51.966;4.602;2022-12-18T14:41:19;30.15;;;12.45;;
41635;SDS011;27623;51.966;4.602;2022-12-18T14:43:48;25.48;;;12.10;;
41635;SDS011;27623;51.966;4.602;2022-12-18T14:49:17;26.27;;;12.65;;
41635;SDS011;27623;51.966;4.602;2022-12-18T14:51:50;25.73;;;12.35;;
41635;SDS011;27623;51.966;4.602;2022-12-18T14:54:18;33.22;;;12.68;;
41635;SDS011;27623;51.966;4.602;2022-12-18T14:56:54;31.15;;;12.88;;
41635;SDS011;27623;51.966;4.602;2022-12-18T14:59:26;30.67;;;13.40;;
41635;SDS011;27623;51.966;4.602;2022-12-18T15:01:59;33.65;;;13.63;;
41635;SDS011;27623;51.966;4.602;2022-12-18T15:04:39;30.38;;;13.35;;
41635;SDS011;27623;51.966;4.602;2022-12-18T15:07:17;26.65;;;12.57;;
41635;SDS011;27623;51.966;4.602;2022-12-18T15:10:07;31.45;;;12.75;;
41635;SDS011;27623;51.966;4.602;2022-12-18T15:12:41;27.65;;;12.80;;
41635;SDS011;27623;51.966;4.602;2022-12-18T15:18:02;26.55;;;13.38;;
41635;SDS011;27623;51.966;4.602;2022-12-18T15:20:31;31.08;;;12.57;;
41635;SDS011;27623;51.966;4.602;2022-12-18T15:23:03;26.35;;;12.52;;
41635;SDS011;27623;51.966;4.602;2022-12-18T15:25:34;29.92;;;13.85;;
41635;SDS011;27623;51.966;4.602;2022-12-18T15:28:04;25.63;;;13.07;;
41635;SDS011;27623;51.966;4.602;2022-12-18T15:30:57;26.98;;;13.00;;
41635;SDS011;27623;51.966;4.602;2022-12-18T15:33:25;25.60;;;12.95;;
41635;SDS011;27623;51.966;4.602;2022-12-18T15:35:58;29.98;;;14.18;;
41635;SDS011;27623;51.966;4.602;2022-12-18T15:38:24;24.48;;;12.45;;
41635;SDS011;27623;51.966;4.602;2022-12-18T15:40:50;26.58;;;14.13;;
41635;SDS011;27623;51.966;4.602;2022-12-18T15:43:17;24.30;;;11.10;;
41635;SDS011;27623;51.966;4.602;2022-12-18T15:46:05;29.55;;;13.55;;
41635;SDS011;27623;51.966;4.602;2022-12-18T15:48:47;27.48;;;12.70;;
41635;SDS011;27623;51.966;4.602;2022-12-18T15:51:31;27.25;;;12.15;;
41635;SDS011;27623;51.966;4.602;2022-12-18T15:54:00;30.55;;;13.85;;
41635;SDS011;27623;51.966;4.602;2022-12-18T15:56:31;29.95;;;12.82;;
41635;SDS011;27623;51.966;4.602;2022-12-18T15:59:16;28.45;;;13.50;;
41635;SDS011;27623;51.966;4.602;2022-12-18T16:01:43;28.48;;;13.32;;
41635;SDS011;27623;51.966;4.602;2022-12-18T16:04:11;36.08;;;14.15;;